Terminal Aerodrome Forecast
Issued by NWS Portland, ME

Home | Current Version | Previous Version | Text Only | Print | Product List | Glossary On
Versions: 1 2 3 4 5 6 7 8 9 10 11 12 13 14 15 16
000
FTUS41 KGYX 231721
TAFCON
TAF
KCON 231721Z 2318/2418 22008KT P6SM SCT035
     FM232200 VRB03KT P6SM BKN100
     FM240800 VRB03KT 5SM -SHRA BR OVC020
     FM241100 12005KT 3SM -RA BR OVC006=

USA.gov is the U.S. government's official web portal to all federal, state and local government web resources and services.